sensor_id;sensor_type;location;lat;lon;timestamp;pressure;altitude;pressure_sealevel;temperature;humidity
75425;BME280;64007;50.632;13.700;2024-03-29T01:41:22;96640.97;;;2.82;100.00
75425;BME280;64007;50.632;13.700;2024-03-29T06:01:09;96737.91;;;4.84;100.00
75425;BME280;64007;50.632;13.700;2024-03-29T06:03:35;96733.81;;;4.91;100.00
75425;BME280;64007;50.632;13.700;2024-03-29T06:06:00;96731.41;;;4.99;100.00
75425;BME280;64007;50.632;13.700;2024-03-29T06:08:26;96732.59;;;5.07;100.00
75425;BME280;64007;50.632;13.700;2024-03-29T06:10:53;96721.81;;;5.10;100.00
75425;BME280;64007;50.632;13.700;2024-03-29T06:13:19;96727.69;;;5.13;100.00
75425;BME280;64007;50.632;13.700;2024-03-29T06:16:17;96735.91;;;5.20;100.00
75425;BME280;64007;50.632;13.700;2024-03-29T06:19:01;96747.69;;;5.27;100.00
75425;BME280;64007;50.632;13.700;2024-03-29T06:21:27;96737.84;;;5.29;100.00
75425;BME280;64007;50.632;13.700;2024-03-29T06:23:53;96746.81;;;5.38;100.00
75425;BME280;64007;50.632;13.700;2024-03-29T06:26:18;96761.28;;;5.43;100.00
75425;BME280;64007;50.632;13.700;2024-03-29T06:28:45;96761.75;;;5.48;100.00
75425;BME280;64007;50.632;13.700;2024-03-29T06:31:10;96770.84;;;5.55;100.00
75425;BME280;64007;50.632;13.700;2024-03-29T06:33:36;96765.69;;;5.65;100.00
75425;BME280;64007;50.632;13.700;2024-03-29T06:36:02;96770.34;;;5.73;100.00
75425;BME280;64007;50.632;13.700;2024-03-29T06:38:28;96774.72;;;5.83;100.00
75425;BME280;64007;50.632;13.700;2024-03-29T06:40:53;96780.13;;;5.93;100.00
75425;BME280;64007;50.632;13.700;2024-03-29T06:43:19;96774.34;;;5.99;100.00
75425;BME280;64007;50.632;13.700;2024-03-29T06:45:45;96773.47;;;6.10;100.00
75425;BME280;64007;50.632;13.700;2024-03-29T06:48:10;96778.13;;;6.17;100.00
75425;BME280;64007;50.632;13.700;2024-03-29T06:50:37;96775.41;;;6.28;100.00
75425;BME280;64007;50.632;13.700;2024-03-29T06:53:04;96777.03;;;6.41;100.00
75425;BME280;64007;50.632;13.700;2024-03-29T06:55:30;96761.13;;;6.52;100.00
75425;BME280;64007;50.632;13.700;2024-03-29T06:57:56;96755.75;;;6.63;100.00
75425;BME280;64007;50.632;13.700;2024-03-29T07:00:22;96740.50;;;6.67;100.00
75425;BME280;64007;50.632;13.700;2024-03-29T07:02:48;96751.38;;;6.73;100.00
75425;BME280;64007;50.632;13.700;2024-03-29T07:05:13;96743.50;;;6.83;100.00
75425;BME280;64007;50.632;13.700;2024-03-29T07:07:39;96748.56;;;6.96;100.00
75425;BME280;64007;50.632;13.700;2024-03-29T07:10:06;96746.34;;;7.01;100.00
75425;BME280;64007;50.632;13.700;2024-03-29T07:12:32;96735.00;;;7.19;100.00
75425;BME280;64007;50.632;13.700;2024-03-29T07:14:58;96726.47;;;7.46;100.00
75425;BME280;64007;50.632;13.700;2024-03-29T07:17:24;96720.94;;;7.69;100.00
75425;BME280;64007;50.632;13.700;2024-03-29T07:19:49;96712.59;;;7.83;98.50
75425;BME280;64007;50.632;13.700;2024-03-29T07:22:15;96712.84;;;7.90;99.56
75425;BME280;64007;50.632;13.700;2024-03-29T07:24:41;96715.94;;;8.04;100.00
75425;BME280;64007;50.632;13.700;2024-03-29T07:27:07;96717.03;;;8.11;98.92
75425;BME280;64007;50.632;13.700;2024-03-29T07:29:32;96712.56;;;8.22;98.74
75425;BME280;64007;50.632;13.700;2024-03-29T07:32:00;96717.00;;;8.31;99.47
75425;BME280;64007;50.632;13.700;2024-03-29T07:34:26;96729.72;;;8.37;96.10
75425;BME280;64007;50.632;13.700;2024-03-29T07:36:52;96737.66;;;8.37;93.04
75425;BME280;64007;50.632;13.700;2024-03-29T07:39:17;96743.25;;;8.43;89.67
75425;BME280;64007;50.632;13.700;2024-03-29T07:41:43;96735.16;;;8.45;91.23
75425;BME280;64007;50.632;13.700;2024-03-29T07:44:08;96745.75;;;8.45;90.02
75425;BME280;64007;50.632;13.700;2024-03-29T07:46:36;96744.09;;;8.44;90.26
75425;BME280;64007;50.632;13.700;2024-03-29T07:49:05;96743.94;;;8.45;90.04
75425;BME280;64007;50.632;13.700;2024-03-29T07:51:31;96745.06;;;8.43;91.64
75425;BME280;64007;50.632;13.700;2024-03-29T07:53:57;96744.34;;;8.22;95.02
75425;BME280;64007;50.632;13.700;2024-03-29T07:56:24;96742.69;;;8.11;96.66
75425;BME280;64007;50.632;13.700;2024-03-29T07:58:52;96752.16;;;8.04;97.98
75425;BME280;64007;50.632;13.700;2024-03-29T08:01:22;96754.94;;;8.02;97.24
75425;BME280;64007;50.632;13.700;2024-03-29T08:03:50;96754.09;;;8.11;97.79
75425;BME280;64007;50.632;13.700;2024-03-29T08:06:17;96764.72;;;8.02;97.51
75425;BME280;64007;50.632;13.700;2024-03-29T08:08:44;96769.16;;;8.01;97.39
75425;BME280;64007;50.632;13.700;2024-03-29T08:11:11;96766.19;;;7.95;98.02
75425;BME280;64007;50.632;13.700;2024-03-29T08:13:38;96764.81;;;7.91;96.96
75425;BME280;64007;50.632;13.700;2024-03-29T08:16:05;96769.69;;;7.76;98.35
75425;BME280;64007;50.632;13.700;2024-03-29T08:18:31;96758.25;;;7.75;98.68
75425;BME280;64007;50.632;13.700;2024-03-29T08:20:58;96762.72;;;7.84;97.23
75425;BME280;64007;50.632;13.700;2024-03-29T08:23:27;96762.72;;;7.84;96.74
75425;BME280;64007;50.632;13.700;2024-03-29T08:25:53;96764.94;;;7.89;97.14
75425;BME280;64007;50.632;13.700;2024-03-29T08:28:24;96770.84;;;8.02;95.44
75425;BME280;64007;50.632;13.700;2024-03-29T08:31:04;96769.84;;;8.03;93.72
75425;BME280;64007;50.632;13.700;2024-03-29T08:33:30;96758.84;;;8.08;93.19
75425;BME280;64007;50.632;13.700;2024-03-29T08:35:57;96754.09;;;8.11;93.08
75425;BME280;64007;50.632;13.700;2024-03-29T08:38:23;96761.47;;;8.27;92.65
75425;BME280;64007;50.632;13.700;2024-03-29T08:40:49;96759.13;;;8.34;91.62
75425;BME280;64007;50.632;13.700;2024-03-29T08:43:15;96754.69;;;8.44;92.32
75425;BME280;64007;50.632;13.700;2024-03-29T08:45:46;96746.84;;;8.52;92.30
75425;BME280;64007;50.632;13.700;2024-03-29T08:48:12;96750.16;;;8.64;93.10
75425;BME280;64007;50.632;13.700;2024-03-29T08:50:38;96760.16;;;8.79;91.96
75425;BME280;64007;50.632;13.700;2024-03-29T08:53:04;96752.06;;;8.91;90.39
75425;BME280;64007;50.632;13.700;2024-03-29T08:55:33;96740.88;;;8.97;90.13
75425;BME280;64007;50.632;13.700;2024-03-29T08:58:00;96741.66;;;9.07;87.43
75425;BME280;64007;50.632;13.700;2024-03-29T09:00:27;96733.81;;;9.15;87.76
75425;BME280;64007;50.632;13.700;2024-03-29T09:02:53;96734.91;;;9.22;84.53
75425;BME280;64007;50.632;13.700;2024-03-29T09:05:19;96725.97;;;9.23;85.68
75425;BME280;64007;50.632;13.700;2024-03-29T09:07:45;96734.13;;;9.39;83.81
75425;BME280;64007;50.632;13.700;2024-03-29T09:10:12;96724.66;;;9.55;85.25
75425;BME280;64007;50.632;13.700;2024-03-29T09:12:38;96727.34;;;9.72;85.99
75425;BME280;64007;50.632;13.700;2024-03-29T09:15:05;96719.03;;;9.85;82.64
75425;BME280;64007;50.632;13.700;2024-03-29T09:17:39;96713.94;;;10.10;82.34
75425;BME280;64007;50.632;13.700;2024-03-29T09:20:06;96717.66;;;10.34;82.88
75425;BME280;64007;50.632;13.700;2024-03-29T09:22:32;96721.03;;;10.62;80.21
75425;BME280;64007;50.632;13.700;2024-03-29T09:24:58;96706.78;;;10.72;77.40
75425;BME280;64007;50.632;13.700;2024-03-29T09:27:24;96726.56;;;10.95;78.35
75425;BME280;64007;50.632;13.700;2024-03-29T09:29:50;96702.50;;;11.05;77.35
75425;BME280;64007;50.632;13.700;2024-03-29T09:32:15;96693.34;;;11.07;75.44
75425;BME280;64007;50.632;13.700;2024-03-29T09:34:45;96694.59;;;11.21;76.23
75425;BME280;64007;50.632;13.700;2024-03-29T09:37:11;96705.16;;;11.47;77.46
75425;BME280;64007;50.632;13.700;2024-03-29T09:39:38;96702.25;;;11.74;72.92
75425;BME280;64007;50.632;13.700;2024-03-29T09:42:06;96691.41;;;11.68;74.29
75425;BME280;64007;50.632;13.700;2024-03-29T09:44:33;96679.94;;;11.67;73.52
75425;BME280;64007;50.632;13.700;2024-03-29T09:47:03;96675.47;;;11.84;73.87
75425;BME280;64007;50.632;13.700;2024-03-29T09:49:32;96658.84;;;11.90;71.56
75425;BME280;64007;50.632;13.700;2024-03-29T09:51:59;96661.00;;;11.86;69.47
75425;BME280;64007;50.632;13.700;2024-03-29T09:54:28;96667.00;;;11.88;68.97
75425;BME280;64007;50.632;13.700;2024-03-29T09:56:57;96671.03;;;12.09;68.66
75425;BME280;64007;50.632;13.700;2024-03-29T09:59:24;96652.38;;;12.09;68.42
75425;BME280;64007;50.632;13.700;2024-03-29T10:01:54;96653.66;;;12.37;68.85
75425;BME280;64007;50.632;13.700;2024-03-29T10:04:21;96647.63;;;12.68;69.12
75425;BME280;64007;50.632;13.700;2024-03-29T10:06:48;96648.59;;;12.83;67.63
75425;BME280;64007;50.632;13.700;2024-03-29T10:09:18;96645.47;;;13.10;64.19
75425;BME280;64007;50.632;13.700;2024-03-29T10:11:44;96632.72;;;13.37;65.36
75425;BME280;64007;50.632;13.700;2024-03-29T10:14:10;96629.94;;;13.53;62.48
75425;BME280;64007;50.632;13.700;2024-03-29T10:16:36;96620.22;;;13.60;58.99
75425;BME280;64007;50.632;13.700;2024-03-29T10:19:03;96625.88;;;13.65;62.07
75425;BME280;64007;50.632;13.700;2024-03-29T10:21:29;96629.91;;;13.61;58.84
75425;BME280;64007;50.632;13.700;2024-03-29T10:23:55;96615.06;;;13.82;60.71
75425;BME280;64007;50.632;13.700;2024-03-29T10:26:23;96618.59;;;14.05;61.07
75425;BME280;64007;50.632;13.700;2024-03-29T10:28:50;96629.19;;;14.13;58.95
75425;BME280;64007;50.632;13.700;2024-03-29T10:31:17;96631.31;;;14.18;59.12
75425;BME280;64007;50.632;13.700;2024-03-29T10:33:43;96634.88;;;14.33;59.59
75425;BME280;64007;50.632;13.700;2024-03-29T10:36:09;96621.75;;;14.61;60.30
75425;BME280;64007;50.632;13.700;2024-03-29T10:38:38;96624.72;;;14.81;57.67
75425;BME280;64007;50.632;13.700;2024-03-29T10:41:04;96624.34;;;14.69;57.01
75425;BME280;64007;50.632;13.700;2024-03-29T10:43:32;96623.31;;;14.70;54.83
75425;BME280;64007;50.632;13.700;2024-03-29T10:45:59;96621.66;;;14.54;49.47
75425;BME280;64007;50.632;13.700;2024-03-29T10:48:27;96610.59;;;14.57;54.48
75425;BME280;64007;50.632;13.700;2024-03-29T10:50:58;96611.25;;;14.45;52.25
75425;BME280;64007;50.632;13.700;2024-03-29T10:53:24;96603.03;;;14.23;56.84
75425;BME280;64007;50.632;13.700;2024-03-29T10:56:07;96607.09;;;14.19;56.97
75425;BME280;64007;50.632;13.700;2024-03-29T10:58:35;96603.50;;;14.27;57.43
75425;BME280;64007;50.632;13.700;2024-03-29T11:01:01;96596.13;;;14.14;58.26
75425;BME280;64007;50.632;13.700;2024-03-29T11:03:38;96605.22;;;14.05;57.27
75425;BME280;64007;50.632;13.700;2024-03-29T11:06:06;96602.91;;;14.02;57.57
75425;BME280;64007;50.632;13.700;2024-03-29T11:08:33;96604.56;;;14.03;58.22
75425;BME280;64007;50.632;13.700;2024-03-29T11:11:05;96598.91;;;13.98;58.45
75425;BME280;64007;50.632;13.700;2024-03-29T11:16:10;96596.31;;;13.90;57.91
75425;BME280;64007;50.632;13.700;2024-03-29T11:18:37;96597.84;;;13.84;58.86
75425;BME280;64007;50.632;13.700;2024-03-29T11:21:04;96595.72;;;13.79;58.09
75425;BME280;64007;50.632;13.700;2024-03-29T11:23:34;96592.41;;;13.77;58.67
75425;BME280;64007;50.632;13.700;2024-03-29T11:25:59;96599.50;;;13.85;57.72
75425;BME280;64007;50.632;13.700;2024-03-29T11:28:35;96586.47;;;13.67;58.78
75425;BME280;64007;50.632;13.700;2024-03-29T11:31:08;96575.44;;;13.70;57.91
75425;BME280;64007;50.632;13.700;2024-03-29T11:41:13;96595.66;;;13.88;57.99
75425;BME280;64007;50.632;13.700;2024-03-29T11:43:40;96596.31;;;13.90;57.83
75425;BME280;64007;50.632;13.700;2024-03-29T11:46:07;96587.28;;;13.91;57.92
75425;BME280;64007;50.632;13.700;2024-03-29T11:48:34;96596.59;;;13.95;57.38
75425;BME280;64007;50.632;13.700;2024-03-29T11:51:01;96594.81;;;13.87;56.69
75425;BME280;64007;50.632;13.700;2024-03-29T11:53:29;96590.75;;;13.76;55.25
75425;BME280;64007;50.632;13.700;2024-03-29T11:55:59;96596.56;;;13.80;56.30
75425;BME280;64007;50.632;13.700;2024-03-29T11:58:27;96596.66;;;13.87;58.79
75425;BME280;64007;50.632;13.700;2024-03-29T12:00:54;96598.47;;;13.71;61.57
75425;BME280;64007;50.632;13.700;2024-03-29T12:03:23;96594.19;;;13.62;61.52
75425;BME280;64007;50.632;13.700;2024-03-29T12:05:50;96596.44;;;13.73;63.92
75425;BME280;64007;50.632;13.700;2024-03-29T12:08:17;96593.47;;;13.68;64.20
75425;BME280;64007;50.632;13.700;2024-03-29T12:10:43;96584.16;;;13.64;63.92
75425;BME280;64007;50.632;13.700;2024-03-29T12:13:15;96591.53;;;13.62;64.73
75425;BME280;64007;50.632;13.700;2024-03-29T12:15:41;96589.53;;;13.56;66.63
75425;BME280;64007;50.632;13.700;2024-03-29T12:18:07;96600.88;;;13.58;66.41
75425;BME280;64007;50.632;13.700;2024-03-29T12:20:37;96604.03;;;13.62;65.86
75425;BME280;64007;50.632;13.700;2024-03-29T12:23:05;96606.28;;;13.50;67.02
75425;BME280;64007;50.632;13.700;2024-03-29T12:25:34;96611.00;;;13.40;68.46
75425;BME280;64007;50.632;13.700;2024-03-29T12:28:00;96611.38;;;13.37;58.81
75425;BME280;64007;50.632;13.700;2024-03-29T12:30:26;96609.94;;;13.26;60.78
75425;BME280;64007;50.632;13.700;2024-03-29T12:33:00;96598.91;;;13.29;61.92
75425;BME280;64007;50.632;13.700;2024-03-29T12:35:27;96593.44;;;13.23;56.55
75425;BME280;64007;50.632;13.700;2024-03-29T12:37:53;96605.78;;;13.24;58.50
75425;BME280;64007;50.632;13.700;2024-03-29T12:40:19;96595.00;;;13.40;56.70
75425;BME280;64007;50.632;13.700;2024-03-29T12:42:48;96604.72;;;13.33;58.85
75425;BME280;64007;50.632;13.700;2024-03-29T12:45:14;96609.47;;;13.45;58.90
75425;BME280;64007;50.632;13.700;2024-03-29T12:47:40;96601.75;;;13.28;61.32
75425;BME280;64007;50.632;13.700;2024-03-29T12:50:06;96593.44;;;13.23;58.68
75425;BME280;64007;50.632;13.700;2024-03-29T12:52:42;96579.75;;;13.17;57.55
75425;BME280;64007;50.632;13.700;2024-03-29T12:55:08;96575.06;;;13.28;57.73
75425;BME280;64007;50.632;13.700;2024-03-29T12:57:34;96570.53;;;13.28;54.84
75425;BME280;64007;50.632;13.700;2024-03-29T13:00:00;96554.75;;;13.41;52.11
75425;BME280;64007;50.632;13.700;2024-03-29T13:02:26;96539.41;;;13.66;53.14
75425;BME280;64007;50.632;13.700;2024-03-29T13:04:52;96518.31;;;13.71;53.37
75425;BME280;64007;50.632;13.700;2024-03-29T13:07:18;96507.75;;;13.78;55.71
75425;BME280;64007;50.632;13.700;2024-03-29T13:09:43;96507.56;;;13.79;61.44
75425;BME280;64007;50.632;13.700;2024-03-29T13:12:09;96517.88;;;13.83;61.83
75425;BME280;64007;50.632;13.700;2024-03-29T13:14:35;96532.75;;;14.00;61.91
75425;BME280;64007;50.632;13.700;2024-03-29T13:17:01;96534.44;;;14.30;59.02
75425;BME280;64007;50.632;13.700;2024-03-29T13:19:26;96535.97;;;14.48;53.88
75425;BME280;64007;50.632;13.700;2024-03-29T13:21:52;96542.78;;;14.65;54.58
75425;BME280;64007;50.632;13.700;2024-03-29T13:24:18;96519.91;;;14.77;49.39
75425;BME280;64007;50.632;13.700;2024-03-29T13:26:44;96528.28;;;14.89;49.56
75425;BME280;64007;50.632;13.700;2024-03-29T13:29:09;96527.25;;;15.04;46.64
75425;BME280;64007;50.632;13.700;2024-03-29T13:31:38;96530.94;;;15.03;45.13
75425;BME280;64007;50.632;13.700;2024-03-29T13:34:04;96516.91;;;15.01;45.80
75425;BME280;64007;50.632;13.700;2024-03-29T13:36:40;96529.41;;;15.16;52.74
75425;BME280;64007;50.632;13.700;2024-03-29T13:39:07;96519.84;;;15.07;60.02
75425;BME280;64007;50.632;13.700;2024-03-29T13:41:34;96511.78;;;14.85;59.55
75425;BME280;64007;50.632;13.700;2024-03-29T13:44:01;96506.31;;;14.93;59.19
75425;BME280;64007;50.632;13.700;2024-03-29T13:46:33;96511.69;;;15.15;58.06
75425;BME280;64007;50.632;13.700;2024-03-29T13:48:58;96511.94;;;15.34;59.01
75425;BME280;64007;50.632;13.700;2024-03-29T13:51:24;96509.13;;;15.43;54.48
75425;BME280;64007;50.632;13.700;2024-03-29T13:53:50;96509.72;;;15.59;53.59
75425;BME280;64007;50.632;13.700;2024-03-29T13:56:16;96517.25;;;15.71;49.85
75425;BME280;64007;50.632;13.700;2024-03-29T13:58:41;96518.78;;;15.58;56.08
75425;BME280;64007;50.632;13.700;2024-03-29T14:01:07;96513.94;;;15.69;57.67
75425;BME280;64007;50.632;13.700;2024-03-29T14:03:33;96508.25;;;15.78;53.48
75425;BME280;64007;50.632;13.700;2024-03-29T14:06:00;96507.06;;;15.87;43.83
75425;BME280;64007;50.632;13.700;2024-03-29T14:08:25;96500.88;;;15.87;45.29
75425;BME280;64007;50.632;13.700;2024-03-29T14:10:52;96505.84;;;15.90;44.49
75425;BME280;64007;50.632;13.700;2024-03-29T14:13:19;96499.00;;;16.09;43.95
75425;BME280;64007;50.632;13.700;2024-03-29T14:15:45;96483.13;;;16.42;46.07
75425;BME280;64007;50.632;13.700;2024-03-29T14:18:11;96474.53;;;17.01;44.61
75425;BME280;64007;50.632;13.700;2024-03-29T14:20:37;96482.19;;;17.04;42.79
75425;BME280;64007;50.632;13.700;2024-03-29T14:23:02;96482.28;;;17.37;42.86
75425;BME280;64007;50.632;13.700;2024-03-29T14:25:32;96485.22;;;17.62;40.94
75425;BME280;64007;50.632;13.700;2024-03-29T14:27:58;96484.84;;;17.78;39.29
75425;BME280;64007;50.632;13.700;2024-03-29T14:30:25;96495.38;;;17.73;39.17
75425;BME280;64007;50.632;13.700;2024-03-29T14:32:52;96502.56;;;17.52;38.92
75425;BME280;64007;50.632;13.700;2024-03-29T14:35:19;96495.53;;;17.51;41.27
75425;BME280;64007;50.632;13.700;2024-03-29T14:37:44;96506.69;;;17.48;41.40
75425;BME280;64007;50.632;13.700;2024-03-29T14:40:11;96502.50;;;17.26;41.10
75425;BME280;64007;50.632;13.700;2024-03-29T14:42:43;96489.09;;;17.26;43.05
75425;BME280;64007;50.632;13.700;2024-03-29T14:45:10;96481.38;;;17.10;47.41
75425;BME280;64007;50.632;13.700;2024-03-29T14:47:38;96487.56;;;17.04;48.53
75425;BME280;64007;50.632;13.700;2024-03-29T14:50:05;96492.94;;;17.10;50.73
75425;BME280;64007;50.632;13.700;2024-03-29T14:52:37;96490.69;;;17.14;50.23
75425;BME280;64007;50.632;13.700;2024-03-29T14:55:04;96485.16;;;17.22;51.16
75425;BME280;64007;50.632;13.700;2024-03-29T14:57:30;96481.22;;;17.31;50.83
75425;BME280;64007;50.632;13.700;2024-03-29T14:59:56;96472.34;;;17.37;47.82
75425;BME280;64007;50.632;13.700;2024-03-29T15:02:22;96470.28;;;17.33;48.20
75425;BME280;64007;50.632;13.700;2024-03-29T15:04:47;96467.78;;;17.25;48.59
75425;BME280;64007;50.632;13.700;2024-03-29T15:07:13;96467.81;;;17.31;46.46
75425;BME280;64007;50.632;13.700;2024-03-29T15:09:39;96461.59;;;17.24;48.46
75425;BME280;64007;50.632;13.700;2024-03-29T15:12:05;96469.03;;;17.22;50.24
75425;BME280;64007;50.632;13.700;2024-03-29T15:14:31;96468.00;;;17.23;50.43
75425;BME280;64007;50.632;13.700;2024-03-29T15:16:57;96472.34;;;17.24;50.86
75425;BME280;64007;50.632;13.700;2024-03-29T15:19:23;96466.56;;;17.27;51.41
75425;BME280;64007;50.632;13.700;2024-03-29T15:21:49;96469.66;;;17.37;51.85
75425;BME280;64007;50.632;13.700;2024-03-29T15:24:15;96453.13;;;17.53;50.98
75425;BME280;64007;50.632;13.700;2024-03-29T15:26:41;96462.91;;;17.68;50.39
75425;BME280;64007;50.632;13.700;2024-03-29T15:29:07;96464.78;;;17.67;49.94
75425;BME280;64007;50.632;13.700;2024-03-29T15:31:37;96462.50;;;17.71;49.91
75425;BME280;64007;50.632;13.700;2024-03-29T15:34:04;96454.19;;;17.66;50.56
75425;BME280;64007;50.632;13.700;2024-03-29T15:36:30;96455.41;;;17.57;50.16
75425;BME280;64007;50.632;13.700;2024-03-29T15:38:57;96463.66;;;17.35;48.90
75425;BME280;64007;50.632;13.700;2024-03-29T15:41:33;96467.53;;;17.13;49.14
75425;BME280;64007;50.632;13.700;2024-03-29T15:43:59;96453.25;;;16.92;48.88
75425;BME280;64007;50.632;13.700;2024-03-29T15:46:26;96454.81;;;16.80;49.50
75425;BME280;64007;50.632;13.700;2024-03-29T15:48:53;96460.78;;;16.69;50.59
75425;BME280;64007;50.632;13.700;2024-03-29T15:51:18;96462.97;;;16.59;50.63
75425;BME280;64007;50.632;13.700;2024-03-29T15:53:44;96464.78;;;16.45;51.12
75425;BME280;64007;50.632;13.700;2024-03-29T15:56:10;96459.53;;;16.30;52.37
75425;BME280;64007;50.632;13.700;2024-03-29T15:58:36;96463.16;;;16.16;53.36
75425;BME280;64007;50.632;13.700;2024-03-29T16:01:03;96468.44;;;16.03;54.56
75425;BME280;64007;50.632;13.700;2024-03-29T16:03:33;96472.03;;;15.89;55.70
75425;BME280;64007;50.632;13.700;2024-03-29T16:05:59;96473.59;;;15.77;55.68
75425;BME280;64007;50.632;13.700;2024-03-29T16:08:24;96476.63;;;15.67;55.72
75425;BME280;64007;50.632;13.700;2024-03-29T16:10:57;96468.84;;;15.57;56.30
75425;BME280;64007;50.632;13.700;2024-03-29T16:13:25;96470.41;;;15.45;57.40
75425;BME280;64007;50.632;13.700;2024-03-29T16:15:53;96472.78;;;15.33;57.66
75425;BME280;64007;50.632;13.700;2024-03-29T16:18:20;96464.59;;;15.20;57.92
75425;BME280;64007;50.632;13.700;2024-03-29T16:20:46;96459.38;;;15.12;58.26
75425;BME280;64007;50.632;13.700;2024-03-29T16:23:13;96459.69;;;15.02;58.49
75425;BME280;64007;50.632;13.700;2024-03-29T16:25:40;96456.75;;;14.97;59.05
75425;BME280;64007;50.632;13.700;2024-03-29T16:28:07;96456.69;;;14.91;59.50
75425;BME280;64007;50.632;13.700;2024-03-29T16:30:42;96454.13;;;14.83;59.63
75425;BME280;64007;50.632;13.700;2024-03-29T16:33:08;96449.69;;;14.75;59.49
75425;BME280;64007;50.632;13.700;2024-03-29T16:35:34;96449.63;;;14.68;59.72
75425;BME280;64007;50.632;13.700;2024-03-29T16:38:01;96466.22;;;14.64;60.28
75425;BME280;64007;50.632;13.700;2024-03-29T16:40:27;96459.53;;;14.53;61.36
75425;BME280;64007;50.632;13.700;2024-03-29T16:42:53;96459.44;;;14.47;63.41
75425;BME280;64007;50.632;13.700;2024-03-29T16:45:19;96460.50;;;14.37;61.95
75425;BME280;64007;50.632;13.700;2024-03-29T16:47:45;96456.34;;;14.35;62.13
75425;BME280;64007;50.632;13.700;2024-03-29T16:50:11;96453.31;;;14.23;61.44
75425;BME280;64007;50.632;13.700;2024-03-29T16:52:37;96454.44;;;14.14;61.35
75425;BME280;64007;50.632;13.700;2024-03-29T16:55:03;96458.50;;;14.10;62.48
75425;BME280;64007;50.632;13.700;2024-03-29T16:57:31;96456.94;;;14.01;64.51
75425;BME280;64007;50.632;13.700;2024-03-29T16:59:57;96460.50;;;13.93;62.38
75425;BME280;64007;50.632;13.700;2024-03-29T17:02:23;96463.16;;;13.78;62.23
75425;BME280;64007;50.632;13.700;2024-03-29T17:04:48;96463.25;;;13.70;63.70
75425;BME280;64007;50.632;13.700;2024-03-29T17:07:16;96459.19;;;13.74;62.16
75425;BME280;64007;50.632;13.700;2024-03-29T17:09:43;96459.25;;;13.29;63.43
75425;BME280;64007;50.632;13.700;2024-03-29T17:12:10;96462.00;;;13.12;63.91
75425;BME280;64007;50.632;13.700;2024-03-29T17:14:40;96463.47;;;12.92;65.06
75425;BME280;64007;50.632;13.700;2024-03-29T17:17:06;96467.72;;;12.78;65.28
75425;BME280;64007;50.632;13.700;2024-03-29T17:19:36;96465.81;;;12.64;65.22
75425;BME280;64007;50.632;13.700;2024-03-29T17:22:05;96474.69;;;12.57;65.62
75425;BME280;64007;50.632;13.700;2024-03-29T17:24:31;96474.72;;;12.40;65.77
75425;BME280;64007;50.632;13.700;2024-03-29T17:26:58;96479.97;;;12.26;65.08
75425;BME280;64007;50.632;13.700;2024-03-29T17:29:24;96475.50;;;12.18;66.25
75425;BME280;64007;50.632;13.700;2024-03-29T17:31:52;96469.72;;;12.06;65.91
75425;BME280;64007;50.632;13.700;2024-03-29T17:34:19;96481.53;;;11.96;65.28
75425;BME280;64007;50.632;13.700;2024-03-29T17:36:46;96488.41;;;11.82;65.11
75425;BME280;64007;50.632;13.700;2024-03-29T17:39:12;96489.56;;;11.71;67.08
75425;BME280;64007;50.632;13.700;2024-03-29T17:41:42;96485.75;;;11.66;66.30
75425;BME280;64007;50.632;13.700;2024-03-29T17:44:09;96481.56;;;11.55;66.34
75425;BME280;64007;50.632;13.700;2024-03-29T17:46:35;96477.06;;;11.47;65.83
75425;BME280;64007;50.632;13.700;2024-03-29T17:49:01;96486.41;;;11.35;68.11
75425;BME280;64007;50.632;13.700;2024-03-29T17:51:30;96495.88;;;11.29;67.79
75425;BME280;64007;50.632;13.700;2024-03-29T17:53:56;96504.03;;;11.28;68.14
75425;BME280;64007;50.632;13.700;2024-03-29T17:56:22;96490.56;;;11.46;67.44
75425;BME280;64007;50.632;13.700;2024-03-29T17:58:47;96496.22;;;11.26;67.74
75425;BME280;64007;50.632;13.700;2024-03-29T18:01:14;96501.69;;;11.17;68.54
75425;BME280;64007;50.632;13.700;2024-03-29T18:03:43;96502.66;;;11.16;69.08
75425;BME280;64007;50.632;13.700;2024-03-29T18:06:10;96505.81;;;11.03;69.63
75425;BME280;64007;50.632;13.700;2024-03-29T18:08:36;96508.13;;;10.98;69.49
75425;BME280;64007;50.632;13.700;2024-03-29T18:11:02;96511.13;;;10.95;68.57
75425;BME280;64007;50.632;13.700;2024-03-29T18:13:28;96517.44;;;10.94;70.39
75425;BME280;64007;50.632;13.700;2024-03-29T18:15:54;96519.41;;;10.84;70.76
75425;BME280;64007;50.632;13.700;2024-03-29T18:18:20;96515.09;;;10.83;69.75
75425;BME280;64007;50.632;13.700;2024-03-29T18:20:46;96513.09;;;10.85;68.24
75425;BME280;64007;50.632;13.700;2024-03-29T18:23:12;96515.41;;;10.80;71.59
75425;BME280;64007;50.632;13.700;2024-03-29T18:25:38;96515.41;;;10.80;71.25
75425;BME280;64007;50.632;13.700;2024-03-29T18:28:04;96515.06;;;10.75;71.05
75425;BME280;64007;50.632;13.700;2024-03-29T18:30:33;96516.38;;;10.71;70.37
75425;BME280;64007;50.632;13.700;2024-03-29T18:33:05;96516.38;;;10.71;70.20
75425;BME280;64007;50.632;13.700;2024-03-29T18:35:31;96513.03;;;10.68;71.56
75425;BME280;64007;50.632;13.700;2024-03-29T18:37:58;96515.69;;;10.68;71.02
75425;BME280;64007;50.632;13.700;2024-03-29T18:40:24;96521.50;;;10.64;71.96
75425;BME280;64007;50.632;13.700;2024-03-29T18:42:50;96521.34;;;10.65;71.62
75425;BME280;64007;50.632;13.700;2024-03-29T18:45:17;96524.66;;;10.59;71.45
75425;BME280;64007;50.632;13.700;2024-03-29T18:47:49;96524.16;;;10.64;72.91
75425;BME280;64007;50.632;13.700;2024-03-29T18:50:20;96524.66;;;10.59;71.77
75425;BME280;64007;50.632;13.700;2024-03-29T18:52:46;96525.28;;;10.53;72.28
75425;BME280;64007;50.632;13.700;2024-03-29T18:55:13;96512.34;;;10.58;73.39
75425;BME280;64007;50.632;13.700;2024-03-29T18:57:39;96513.31;;;10.49;74.98
75425;BME280;64007;50.632;13.700;2024-03-29T19:00:06;96512.66;;;10.47;75.58